sensor_id;sensor_type;location;lat;lon;timestamp;temperature;humidity
24772;DHT22;12870;52.274;9.754;2024-02-21T00:01:22;9.80;99.90
24772;DHT22;12870;52.274;9.754;2024-02-21T00:03:47;9.70;99.90
24772;DHT22;12870;52.274;9.754;2024-02-21T00:06:13;9.70;99.90
24772;DHT22;12870;52.274;9.754;2024-02-21T00:08:39;9.70;99.90
24772;DHT22;12870;52.274;9.754;2024-02-21T00:11:04;9.80;99.90
24772;DHT22;12870;52.274;9.754;2024-02-21T00:13:30;9.80;99.90
24772;DHT22;12870;52.274;9.754;2024-02-21T00:15:56;9.70;99.90
24772;DHT22;12870;52.274;9.754;2024-02-21T00:18:22;9.70;99.90
24772;DHT22;12870;52.274;9.754;2024-02-21T00:20:47;9.70;99.90
24772;DHT22;12870;52.274;9.754;2024-02-21T00:23:13;9.70;99.90
24772;DHT22;12870;52.274;9.754;2024-02-21T00:25:39;9.70;99.90
24772;DHT22;12870;52.274;9.754;2024-02-21T00:28:05;9.70;99.90
24772;DHT22;12870;52.274;9.754;2024-02-21T00:30:31;9.60;99.90
24772;DHT22;12870;52.274;9.754;2024-02-21T00:32:57;9.60;99.90
24772;DHT22;12870;52.274;9.754;2024-02-21T00:35:22;9.70;99.90
24772;DHT22;12870;52.274;9.754;2024-02-21T00:37:48;9.60;99.90
24772;DHT22;12870;52.274;9.754;2024-02-21T00:40:13;9.70;99.90
24772;DHT22;12870;52.274;9.754;2024-02-21T00:42:45;9.70;99.90
24772;DHT22;12870;52.274;9.754;2024-02-21T00:45:11;9.70;99.90
24772;DHT22;12870;52.274;9.754;2024-02-21T00:47:37;9.80;99.90
24772;DHT22;12870;52.274;9.754;2024-02-21T00:50:02;9.70;99.90
24772;DHT22;12870;52.274;9.754;2024-02-21T00:52:28;9.70;99.90
24772;DHT22;12870;52.274;9.754;2024-02-21T00:54:53;9.70;99.90
24772;DHT22;12870;52.274;9.754;2024-02-21T00:57:19;9.70;99.90
24772;DHT22;12870;52.274;9.754;2024-02-21T00:59:45;9.70;99.90
24772;DHT22;12870;52.274;9.754;2024-02-21T01:02:10;9.60;99.90
24772;DHT22;12870;52.274;9.754;2024-02-21T01:04:36;9.60;99.90
24772;DHT22;12870;52.274;9.754;2024-02-21T01:07:02;9.80;99.90
24772;DHT22;12870;52.274;9.754;2024-02-21T01:09:27;9.80;99.90
24772;DHT22;12870;52.274;9.754;2024-02-21T01:11:53;9.80;99.90
24772;DHT22;12870;52.274;9.754;2024-02-21T01:14:18;9.90;99.90
24772;DHT22;12870;52.274;9.754;2024-02-21T01:16:44;9.90;99.90
24772;DHT22;12870;52.274;9.754;2024-02-21T01:19:09;9.90;99.90
24772;DHT22;12870;52.274;9.754;2024-02-21T01:21:35;9.90;99.90
24772;DHT22;12870;52.274;9.754;2024-02-21T01:24:00;9.90;99.90
24772;DHT22;12870;52.274;9.754;2024-02-21T01:26:26;9.90;99.90
24772;DHT22;12870;52.274;9.754;2024-02-21T01:28:51;9.80;99.90
24772;DHT22;12870;52.274;9.754;2024-02-21T01:31:17;9.80;99.90
24772;DHT22;12870;52.274;9.754;2024-02-21T01:33:43;9.80;99.90
24772;DHT22;12870;52.274;9.754;2024-02-21T01:36:08;9.80;99.90
24772;DHT22;12870;52.274;9.754;2024-02-21T01:38:34;9.90;99.90
24772;DHT22;12870;52.274;9.754;2024-02-21T01:41:00;9.80;99.90
24772;DHT22;12870;52.274;9.754;2024-02-21T01:43:26;10.00;99.90
24772;DHT22;12870;52.274;9.754;2024-02-21T01:45:56;9.90;99.90
24772;DHT22;12870;52.274;9.754;2024-02-21T01:48:22;10.00;99.90
24772;DHT22;12870;52.274;9.754;2024-02-21T01:50:53;10.00;99.90
24772;DHT22;12870;52.274;9.754;2024-02-21T01:53:32;9.90;99.90
24772;DHT22;12870;52.274;9.754;2024-02-21T01:55:59;9.90;99.90
24772;DHT22;12870;52.274;9.754;2024-02-21T01:58:26;9.90;99.90
24772;DHT22;12870;52.274;9.754;2024-02-21T02:00:51;9.90;99.90
24772;DHT22;12870;52.274;9.754;2024-02-21T02:03:17;9.90;99.90
24772;DHT22;12870;52.274;9.754;2024-02-21T02:05:46;9.90;99.90
24772;DHT22;12870;52.274;9.754;2024-02-21T02:08:13;9.90;99.90
24772;DHT22;12870;52.274;9.754;2024-02-21T02:10:40;9.90;99.90
24772;DHT22;12870;52.274;9.754;2024-02-21T02:13:05;9.90;99.90
24772;DHT22;12870;52.274;9.754;2024-02-21T02:15:48;9.90;99.90
24772;DHT22;12870;52.274;9.754;2024-02-21T02:18:15;9.80;99.90
24772;DHT22;12870;52.274;9.754;2024-02-21T02:20:41;9.80;99.90
24772;DHT22;12870;52.274;9.754;2024-02-21T02:23:09;9.80;99.90
24772;DHT22;12870;52.274;9.754;2024-02-21T02:25:36;9.80;99.90
24772;DHT22;12870;52.274;9.754;2024-02-21T02:28:06;9.80;99.90
24772;DHT22;12870;52.274;9.754;2024-02-21T02:30:36;9.80;99.90
24772;DHT22;12870;52.274;9.754;2024-02-21T02:33:05;9.80;99.90
24772;DHT22;12870;52.274;9.754;2024-02-21T02:35:31;9.70;99.90
24772;DHT22;12870;52.274;9.754;2024-02-21T02:37:57;9.80;99.90
24772;DHT22;12870;52.274;9.754;2024-02-21T02:40:22;9.80;99.90
24772;DHT22;12870;52.274;9.754;2024-02-21T02:42:48;9.70;99.90
24772;DHT22;12870;52.274;9.754;2024-02-21T02:45:15;9.70;99.90
24772;DHT22;12870;52.274;9.754;2024-02-21T02:47:41;9.70;99.90
24772;DHT22;12870;52.274;9.754;2024-02-21T02:50:07;9.70;99.90
24772;DHT22;12870;52.274;9.754;2024-02-21T02:52:33;9.70;99.90
24772;DHT22;12870;52.274;9.754;2024-02-21T02:54:59;9.70;99.90
24772;DHT22;12870;52.274;9.754;2024-02-21T02:57:24;9.80;99.90
24772;DHT22;12870;52.274;9.754;2024-02-21T02:59:51;9.80;99.90
24772;DHT22;12870;52.274;9.754;2024-02-21T03:02:17;9.80;99.90
24772;DHT22;12870;52.274;9.754;2024-02-21T03:04:43;9.80;99.90
24772;DHT22;12870;52.274;9.754;2024-02-21T03:07:09;9.80;99.90
24772;DHT22;12870;52.274;9.754;2024-02-21T03:09:34;9.80;99.90
24772;DHT22;12870;52.274;9.754;2024-02-21T03:12:00;9.70;99.90
24772;DHT22;12870;52.274;9.754;2024-02-21T03:14:31;9.70;99.90
24772;DHT22;12870;52.274;9.754;2024-02-21T03:16:58;9.80;99.90
24772;DHT22;12870;52.274;9.754;2024-02-21T03:19:24;9.80;99.90
24772;DHT22;12870;52.274;9.754;2024-02-21T03:21:50;9.80;99.90
24772;DHT22;12870;52.274;9.754;2024-02-21T03:24:16;9.80;99.90
24772;DHT22;12870;52.274;9.754;2024-02-21T03:26:42;9.80;99.90
24772;DHT22;12870;52.274;9.754;2024-02-21T03:29:07;9.80;99.90
24772;DHT22;12870;52.274;9.754;2024-02-21T03:31:34;9.80;99.90
24772;DHT22;12870;52.274;9.754;2024-02-21T03:34:00;9.80;99.90
24772;DHT22;12870;52.274;9.754;2024-02-21T03:36:26;9.70;99.90
24772;DHT22;12870;52.274;9.754;2024-02-21T03:38:51;9.70;99.90
24772;DHT22;12870;52.274;9.754;2024-02-21T03:41:17;9.70;99.90
24772;DHT22;12870;52.274;9.754;2024-02-21T03:43:42;9.70;99.90
24772;DHT22;12870;52.274;9.754;2024-02-21T03:46:08;9.70;99.90
24772;DHT22;12870;52.274;9.754;2024-02-21T03:48:33;9.60;99.90
24772;DHT22;12870;52.274;9.754;2024-02-21T03:50:59;9.50;99.90
24772;DHT22;12870;52.274;9.754;2024-02-21T03:53:25;9.50;99.90
24772;DHT22;12870;52.274;9.754;2024-02-21T03:55:50;9.60;99.90
24772;DHT22;12870;52.274;9.754;2024-02-21T03:58:16;9.50;99.90
24772;DHT22;12870;52.274;9.754;2024-02-21T04:00:42;9.50;99.90
24772;DHT22;12870;52.274;9.754;2024-02-21T04:03:07;9.60;99.90
24772;DHT22;12870;52.274;9.754;2024-02-21T04:05:33;9.60;99.90
24772;DHT22;12870;52.274;9.754;2024-02-21T04:07:58;9.60;99.90
24772;DHT22;12870;52.274;9.754;2024-02-21T04:10:25;9.50;99.90
24772;DHT22;12870;52.274;9.754;2024-02-21T04:12:50;9.60;99.90
24772;DHT22;12870;52.274;9.754;2024-02-21T04:15:17;9.50;99.90
24772;DHT22;12870;52.274;9.754;2024-02-21T04:17:42;9.50;99.90
24772;DHT22;12870;52.274;9.754;2024-02-21T04:20:14;9.60;99.90
24772;DHT22;12870;52.274;9.754;2024-02-21T04:22:40;9.50;99.90
24772;DHT22;12870;52.274;9.754;2024-02-21T04:25:06;9.50;99.90
24772;DHT22;12870;52.274;9.754;2024-02-21T04:27:31;9.50;99.90
24772;DHT22;12870;52.274;9.754;2024-02-21T04:29:57;9.50;99.90
24772;DHT22;12870;52.274;9.754;2024-02-21T04:32:23;9.50;99.90
24772;DHT22;12870;52.274;9.754;2024-02-21T04:34:48;9.50;99.90
24772;DHT22;12870;52.274;9.754;2024-02-21T04:37:14;9.50;99.90
24772;DHT22;12870;52.274;9.754;2024-02-21T04:39:40;9.70;99.90
24772;DHT22;12870;52.274;9.754;2024-02-21T04:42:05;9.70;99.90
24772;DHT22;12870;52.274;9.754;2024-02-21T04:44:31;9.70;99.90
24772;DHT22;12870;52.274;9.754;2024-02-21T04:46:56;9.70;99.90
24772;DHT22;12870;52.274;9.754;2024-02-21T04:49:22;9.80;99.90
24772;DHT22;12870;52.274;9.754;2024-02-21T04:51:47;9.80;99.90
24772;DHT22;12870;52.274;9.754;2024-02-21T04:54:13;9.70;99.90
24772;DHT22;12870;52.274;9.754;2024-02-21T04:56:38;9.80;99.90
24772;DHT22;12870;52.274;9.754;2024-02-21T04:59:04;9.80;99.90
24772;DHT22;12870;52.274;9.754;2024-02-21T05:01:29;9.80;99.90
24772;DHT22;12870;52.274;9.754;2024-02-21T05:03:55;9.70;99.90
24772;DHT22;12870;52.274;9.754;2024-02-21T05:06:20;9.70;99.90
24772;DHT22;12870;52.274;9.754;2024-02-21T05:08:47;9.80;99.90
24772;DHT22;12870;52.274;9.754;2024-02-21T05:11:13;9.90;99.90
24772;DHT22;12870;52.274;9.754;2024-02-21T05:13:38;9.70;99.90
24772;DHT22;12870;52.274;9.754;2024-02-21T05:16:04;9.80;99.90
24772;DHT22;12870;52.274;9.754;2024-02-21T05:18:30;9.80;99.90
24772;DHT22;12870;52.274;9.754;2024-02-21T05:20:55;9.80;99.90
24772;DHT22;12870;52.274;9.754;2024-02-21T05:23:21;9.80;99.90
24772;DHT22;12870;52.274;9.754;2024-02-21T05:25:46;9.80;99.90
24772;DHT22;12870;52.274;9.754;2024-02-21T05:28:12;9.70;99.90
24772;DHT22;12870;52.274;9.754;2024-02-21T05:30:37;9.80;99.90
24772;DHT22;12870;52.274;9.754;2024-02-21T05:33:06;9.80;99.90
24772;DHT22;12870;52.274;9.754;2024-02-21T05:35:33;9.90;99.90
24772;DHT22;12870;52.274;9.754;2024-02-21T05:37:59;9.80;99.90
24772;DHT22;12870;52.274;9.754;2024-02-21T05:40:24;9.90;99.90
24772;DHT22;12870;52.274;9.754;2024-02-21T05:42:50;9.90;99.90
24772;DHT22;12870;52.274;9.754;2024-02-21T05:45:17;9.90;99.90
24772;DHT22;12870;52.274;9.754;2024-02-21T05:47:43;9.80;99.90
24772;DHT22;12870;52.274;9.754;2024-02-21T05:50:09;9.80;99.90
24772;DHT22;12870;52.274;9.754;2024-02-21T05:52:35;9.80;99.90
24772;DHT22;12870;52.274;9.754;2024-02-21T05:55:00;9.60;99.90
24772;DHT22;12870;52.274;9.754;2024-02-21T05:57:26;9.70;99.90
24772;DHT22;12870;52.274;9.754;2024-02-21T05:59:51;9.60;99.90
24772;DHT22;12870;52.274;9.754;2024-02-21T06:02:17;9.60;99.90
24772;DHT22;12870;52.274;9.754;2024-02-21T06:04:42;9.60;99.90
24772;DHT22;12870;52.274;9.754;2024-02-21T06:07:09;9.50;99.90
24772;DHT22;12870;52.274;9.754;2024-02-21T06:09:35;9.60;99.90
24772;DHT22;12870;52.274;9.754;2024-02-21T06:12:00;9.60;99.90
24772;DHT22;12870;52.274;9.754;2024-02-21T06:14:26;9.60;99.90
24772;DHT22;12870;52.274;9.754;2024-02-21T06:16:51;9.60;99.90
24772;DHT22;12870;52.274;9.754;2024-02-21T06:19:17;9.50;99.90
24772;DHT22;12870;52.274;9.754;2024-02-21T06:21:42;9.50;99.90
24772;DHT22;12870;52.274;9.754;2024-02-21T06:24:08;9.40;99.90
24772;DHT22;12870;52.274;9.754;2024-02-21T06:26:33;9.40;99.90
24772;DHT22;12870;52.274;9.754;2024-02-21T06:28:59;9.50;99.90
24772;DHT22;12870;52.274;9.754;2024-02-21T06:31:25;9.50;99.90
24772;DHT22;12870;52.274;9.754;2024-02-21T06:33:50;9.50;99.90
24772;DHT22;12870;52.274;9.754;2024-02-21T06:36:16;9.50;99.90
24772;DHT22;12870;52.274;9.754;2024-02-21T06:38:42;9.40;99.90
24772;DHT22;12870;52.274;9.754;2024-02-21T06:41:15;9.50;99.90
24772;DHT22;12870;52.274;9.754;2024-02-21T06:43:41;9.50;99.90
24772;DHT22;12870;52.274;9.754;2024-02-21T06:46:06;9.50;99.90
24772;DHT22;12870;52.274;9.754;2024-02-21T06:48:31;9.40;99.90
24772;DHT22;12870;52.274;9.754;2024-02-21T06:50:57;9.50;99.90
24772;DHT22;12870;52.274;9.754;2024-02-21T06:53:22;9.40;99.90
24772;DHT22;12870;52.274;9.754;2024-02-21T06:55:48;9.50;99.90
24772;DHT22;12870;52.274;9.754;2024-02-21T06:58:13;9.50;99.90
24772;DHT22;12870;52.274;9.754;2024-02-21T07:00:42;9.50;99.90
24772;DHT22;12870;52.274;9.754;2024-02-21T07:03:08;9.50;99.90
24772;DHT22;12870;52.274;9.754;2024-02-21T07:05:34;9.40;99.90
24772;DHT22;12870;52.274;9.754;2024-02-21T07:07:59;9.40;99.90
24772;DHT22;12870;52.274;9.754;2024-02-21T07:10:25;9.50;99.90
24772;DHT22;12870;52.274;9.754;2024-02-21T07:12:51;9.50;99.90
24772;DHT22;12870;52.274;9.754;2024-02-21T07:15:18;9.50;99.90
24772;DHT22;12870;52.274;9.754;2024-02-21T07:17:43;9.50;99.90
24772;DHT22;12870;52.274;9.754;2024-02-21T07:20:09;9.50;99.90
24772;DHT22;12870;52.274;9.754;2024-02-21T07:22:35;9.60;99.90
24772;DHT22;12870;52.274;9.754;2024-02-21T07:25:00;9.60;99.90
24772;DHT22;12870;52.274;9.754;2024-02-21T07:27:26;9.60;99.90
24772;DHT22;12870;52.274;9.754;2024-02-21T07:29:56;9.60;99.90
24772;DHT22;12870;52.274;9.754;2024-02-21T07:32:21;9.60;99.90
24772;DHT22;12870;52.274;9.754;2024-02-21T07:34:47;9.60;99.90
24772;DHT22;12870;52.274;9.754;2024-02-21T07:37:12;9.60;99.90
24772;DHT22;12870;52.274;9.754;2024-02-21T07:39:38;9.60;99.90
24772;DHT22;12870;52.274;9.754;2024-02-21T07:42:03;9.70;99.90
24772;DHT22;12870;52.274;9.754;2024-02-21T07:44:29;9.70;99.90
24772;DHT22;12870;52.274;9.754;2024-02-21T07:46:57;9.70;99.90
24772;DHT22;12870;52.274;9.754;2024-02-21T07:49:22;9.80;99.90
24772;DHT22;12870;52.274;9.754;2024-02-21T07:51:48;9.70;99.90
24772;DHT22;12870;52.274;9.754;2024-02-21T07:54:13;9.80;99.90
24772;DHT22;12870;52.274;9.754;2024-02-21T07:56:39;9.80;99.90
24772;DHT22;12870;52.274;9.754;2024-02-21T07:59:05;9.80;99.90
24772;DHT22;12870;52.274;9.754;2024-02-21T08:01:30;9.80;99.90
24772;DHT22;12870;52.274;9.754;2024-02-21T08:03:56;9.70;99.90
24772;DHT22;12870;52.274;9.754;2024-02-21T08:06:21;9.90;99.90
24772;DHT22;12870;52.274;9.754;2024-02-21T08:08:47;9.80;99.90
24772;DHT22;12870;52.274;9.754;2024-02-21T08:11:13;9.70;99.90
24772;DHT22;12870;52.274;9.754;2024-02-21T08:13:38;9.80;99.90
24772;DHT22;12870;52.274;9.754;2024-02-21T08:16:04;9.80;99.90
24772;DHT22;12870;52.274;9.754;2024-02-21T08:18:29;9.70;99.90
24772;DHT22;12870;52.274;9.754;2024-02-21T08:20:55;9.70;99.90
24772;DHT22;12870;52.274;9.754;2024-02-21T08:23:23;9.80;99.90
24772;DHT22;12870;52.274;9.754;2024-02-21T08:25:49;9.70;99.90
24772;DHT22;12870;52.274;9.754;2024-02-21T08:28:15;9.80;99.90
24772;DHT22;12870;52.274;9.754;2024-02-21T08:30:40;9.90;99.90
24772;DHT22;12870;52.274;9.754;2024-02-21T08:33:09;10.00;99.90
24772;DHT22;12870;52.274;9.754;2024-02-21T08:35:35;10.00;99.90
24772;DHT22;12870;52.274;9.754;2024-02-21T08:38:00;10.10;99.90
24772;DHT22;12870;52.274;9.754;2024-02-21T08:40:26;10.10;99.90
24772;DHT22;12870;52.274;9.754;2024-02-21T08:42:51;9.90;99.90
24772;DHT22;12870;52.274;9.754;2024-02-21T08:45:17;10.00;99.90
24772;DHT22;12870;52.274;9.754;2024-02-21T08:47:42;10.10;99.90
24772;DHT22;12870;52.274;9.754;2024-02-21T08:50:08;10.10;99.90
24772;DHT22;12870;52.274;9.754;2024-02-21T08:52:37;10.20;99.90
24772;DHT22;12870;52.274;9.754;2024-02-21T08:55:03;10.20;99.90
24772;DHT22;12870;52.274;9.754;2024-02-21T08:57:29;10.20;99.90
24772;DHT22;12870;52.274;9.754;2024-02-21T08:59:54;10.20;99.90
24772;DHT22;12870;52.274;9.754;2024-02-21T09:02:20;10.30;99.90
24772;DHT22;12870;52.274;9.754;2024-02-21T09:04:45;10.30;99.90
24772;DHT22;12870;52.274;9.754;2024-02-21T09:07:11;10.30;99.90
24772;DHT22;12870;52.274;9.754;2024-02-21T09:09:37;10.20;99.90
24772;DHT22;12870;52.274;9.754;2024-02-21T09:12:06;10.30;99.90
24772;DHT22;12870;52.274;9.754;2024-02-21T09:14:33;10.50;99.90
24772;DHT22;12870;52.274;9.754;2024-02-21T09:16:59;10.60;99.90
24772;DHT22;12870;52.274;9.754;2024-02-21T09:19:24;10.70;99.90
24772;DHT22;12870;52.274;9.754;2024-02-21T09:21:50;10.80;99.90
24772;DHT22;12870;52.274;9.754;2024-02-21T09:24:15;10.70;99.90
24772;DHT22;12870;52.274;9.754;2024-02-21T09:26:41;10.70;99.90
24772;DHT22;12870;52.274;9.754;2024-02-21T09:29:06;10.90;99.90
24772;DHT22;12870;52.274;9.754;2024-02-21T09:31:32;10.90;99.90
24772;DHT22;12870;52.274;9.754;2024-02-21T09:33:57;11.00;99.90
24772;DHT22;12870;52.274;9.754;2024-02-21T09:36:23;11.10;99.90
24772;DHT22;12870;52.274;9.754;2024-02-21T09:38:49;11.00;99.90
24772;DHT22;12870;52.274;9.754;2024-02-21T09:41:20;11.10;99.90
24772;DHT22;12870;52.274;9.754;2024-02-21T09:43:50;11.20;99.90
24772;DHT22;12870;52.274;9.754;2024-02-21T09:46:19;11.20;99.90
24772;DHT22;12870;52.274;9.754;2024-02-21T09:51:53;11.30;99.90
24772;DHT22;12870;52.274;9.754;2024-02-21T09:54:19;11.20;99.90
24772;DHT22;12870;52.274;9.754;2024-02-21T09:56:46;11.30;99.90
24772;DHT22;12870;52.274;9.754;2024-02-21T09:59:14;11.20;99.90
24772;DHT22;12870;52.274;9.754;2024-02-21T10:01:44;11.20;99.90
24772;DHT22;12870;52.274;9.754;2024-02-21T10:04:11;11.40;99.90
24772;DHT22;12870;52.274;9.754;2024-02-21T10:06:37;11.50;99.90
24772;DHT22;12870;52.274;9.754;2024-02-21T10:09:05;11.40;99.90
24772;DHT22;12870;52.274;9.754;2024-02-21T10:11:31;11.50;99.90
24772;DHT22;12870;52.274;9.754;2024-02-21T10:14:09;11.60;99.90
24772;DHT22;12870;52.274;9.754;2024-02-21T10:16:34;11.60;99.90
24772;DHT22;12870;52.274;9.754;2024-02-21T10:19:00;11.50;99.90
24772;DHT22;12870;52.274;9.754;2024-02-21T10:21:26;11.40;99.90
24772;DHT22;12870;52.274;9.754;2024-02-21T10:23:52;11.40;99.90
24772;DHT22;12870;52.274;9.754;2024-02-21T10:26:19;11.60;99.90
24772;DHT22;12870;52.274;9.754;2024-02-21T10:28:45;11.80;99.90
24772;DHT22;12870;52.274;9.754;2024-02-21T10:31:23;11.70;99.90
24772;DHT22;12870;52.274;9.754;2024-02-21T10:34:00;11.70;99.90
24772;DHT22;12870;52.274;9.754;2024-02-21T10:36:29;11.70;99.90
24772;DHT22;12870;52.274;9.754;2024-02-21T10:38:55;11.70;99.90
24772;DHT22;12870;52.274;9.754;2024-02-21T10:41:22;11.70;99.90
24772;DHT22;12870;52.274;9.754;2024-02-21T10:43:57;11.80;99.90
24772;DHT22;12870;52.274;9.754;2024-02-21T10:46:24;11.70;99.90
24772;DHT22;12870;52.274;9.754;2024-02-21T10:49:07;11.80;99.90
24772;DHT22;12870;52.274;9.754;2024-02-21T10:51:37;12.00;99.90
24772;DHT22;12870;52.274;9.754;2024-02-21T10:54:13;12.10;99.90
24772;DHT22;12870;52.274;9.754;2024-02-21T10:56:40;12.00;99.90
24772;DHT22;12870;52.274;9.754;2024-02-21T10:59:07;11.80;99.90
24772;DHT22;12870;52.274;9.754;2024-02-21T11:01:33;11.80;99.90
24772;DHT22;12870;52.274;9.754;2024-02-21T11:04:08;12.00;99.90
24772;DHT22;12870;52.274;9.754;2024-02-21T11:06:36;12.10;99.90
24772;DHT22;12870;52.274;9.754;2024-02-21T11:09:03;12.20;99.90
24772;DHT22;12870;52.274;9.754;2024-02-21T11:11:32;12.10;99.90
24772;DHT22;12870;52.274;9.754;2024-02-21T11:14:25;12.10;99.90
24772;DHT22;12870;52.274;9.754;2024-02-21T11:16:51;12.30;99.90
24772;DHT22;12870;52.274;9.754;2024-02-21T11:21:50;12.20;99.90
24772;DHT22;12870;52.274;9.754;2024-02-21T11:24:28;12.20;99.90
24772;DHT22;12870;52.274;9.754;2024-02-21T11:26:54;12.50;99.90
24772;DHT22;12870;52.274;9.754;2024-02-21T11:29:26;12.10;99.90
24772;DHT22;12870;52.274;9.754;2024-02-21T11:31:52;12.20;99.90
24772;DHT22;12870;52.274;9.754;2024-02-21T11:34:18;12.50;99.90
24772;DHT22;12870;52.274;9.754;2024-02-21T11:36:51;12.70;99.90
24772;DHT22;12870;52.274;9.754;2024-02-21T11:39:23;13.00;99.90
24772;DHT22;12870;52.274;9.754;2024-02-21T11:42:03;13.00;99.90
24772;DHT22;12870;52.274;9.754;2024-02-21T11:44:30;13.00;99.90
24772;DHT22;12870;52.274;9.754;2024-02-21T11:46:56;13.00;99.90
24772;DHT22;12870;52.274;9.754;2024-02-21T11:49:21;13.10;99.90
24772;DHT22;12870;52.274;9.754;2024-02-21T11:51:47;13.10;99.90
24772;DHT22;12870;52.274;9.754;2024-02-21T11:54:13;13.20;99.90
24772;DHT22;12870;52.274;9.754;2024-02-21T11:56:41;13.10;99.90
24772;DHT22;12870;52.274;9.754;2024-02-21T11:59:08;13.10;99.90
24772;DHT22;12870;52.274;9.754;2024-02-21T12:01:34;13.20;99.90
24772;DHT22;12870;52.274;9.754;2024-02-21T12:03:59;13.60;99.90
24772;DHT22;12870;52.274;9.754;2024-02-21T12:06:25;14.00;99.90
24772;DHT22;12870;52.274;9.754;2024-02-21T12:08:50;14.00;99.90
24772;DHT22;12870;52.274;9.754;2024-02-21T12:11:20;14.10;99.90
24772;DHT22;12870;52.274;9.754;2024-02-21T12:13:48;13.70;99.90
24772;DHT22;12870;52.274;9.754;2024-02-21T12:16:23;13.60;99.90
24772;DHT22;12870;52.274;9.754;2024-02-21T12:18:48;13.20;99.90
24772;DHT22;12870;52.274;9.754;2024-02-21T12:21:15;13.00;99.90
24772;DHT22;12870;52.274;9.754;2024-02-21T12:23:41;13.00;99.90
24772;DHT22;12870;52.274;9.754;2024-02-21T12:26:07;13.30;99.90
24772;DHT22;12870;52.274;9.754;2024-02-21T12:28:33;13.40;99.90
24772;DHT22;12870;52.274;9.754;2024-02-21T12:30:58;13.80;99.90
24772;DHT22;12870;52.274;9.754;2024-02-21T12:33:24;13.80;99.90
24772;DHT22;12870;52.274;9.754;2024-02-21T12:35:50;14.00;99.90
24772;DHT22;12870;52.274;9.754;2024-02-21T12:38:15;14.20;99.90
24772;DHT22;12870;52.274;9.754;2024-02-21T12:40:43;14.30;99.90
24772;DHT22;12870;52.274;9.754;2024-02-21T12:43:08;14.20;99.90
24772;DHT22;12870;52.274;9.754;2024-02-21T12:45:35;13.70;99.90
24772;DHT22;12870;52.274;9.754;2024-02-21T12:48:00;13.50;99.90
24772;DHT22;12870;52.274;9.754;2024-02-21T12:50:26;13.30;99.90
24772;DHT22;12870;52.274;9.754;2024-02-21T12:52:51;13.30;99.90
24772;DHT22;12870;52.274;9.754;2024-02-21T12:55:17;13.50;99.90
24772;DHT22;12870;52.274;9.754;2024-02-21T12:57:42;13.10;99.90
24772;DHT22;12870;52.274;9.754;2024-02-21T13:00:08;12.90;99.90
24772;DHT22;12870;52.274;9.754;2024-02-21T13:02:35;12.90;99.90
24772;DHT22;12870;52.274;9.754;2024-02-21T13:05:00;12.70;99.90
24772;DHT22;12870;52.274;9.754;2024-02-21T13:07:28;12.70;99.90
24772;DHT22;12870;52.274;9.754;2024-02-21T13:09:54;12.70;99.90
24772;DHT22;12870;52.274;9.754;2024-02-21T13:12:19;12.80;99.90
24772;DHT22;12870;52.274;9.754;2024-02-21T13:14:45;12.70;99.90
24772;DHT22;12870;52.274;9.754;2024-02-21T13:17:11;12.80;99.90
24772;DHT22;12870;52.274;9.754;2024-02-21T13:19:36;12.70;99.90
24772;DHT22;12870;52.274;9.754;2024-02-21T13:22:02;12.80;99.90
24772;DHT22;12870;52.274;9.754;2024-02-21T13:24:28;12.90;99.90
24772;DHT22;12870;52.274;9.754;2024-02-21T13:26:53;13.00;99.90
24772;DHT22;12870;52.274;9.754;2024-02-21T13:29:19;12.70;99.90
24772;DHT22;12870;52.274;9.754;2024-02-21T13:31:45;12.80;99.90
24772;DHT22;12870;52.274;9.754;2024-02-21T13:34:11;12.70;99.90
24772;DHT22;12870;52.274;9.754;2024-02-21T13:36:36;12.60;99.90
24772;DHT22;12870;52.274;9.754;2024-02-21T13:39:02;12.70;99.90
24772;DHT22;12870;52.274;9.754;2024-02-21T13:41:30;12.60;99.90
24772;DHT22;12870;52.274;9.754;2024-02-21T13:43:56;12.70;99.90
24772;DHT22;12870;52.274;9.754;2024-02-21T13:46:22;12.50;99.90
24772;DHT22;12870;52.274;9.754;2024-02-21T13:48:47;12.60;99.90
24772;DHT22;12870;52.274;9.754;2024-02-21T13:51:13;12.70;99.90
24772;DHT22;12870;52.274;9.754;2024-02-21T13:53:39;12.90;99.90
24772;DHT22;12870;52.274;9.754;2024-02-21T13:56:05;12.90;99.90
24772;DHT22;12870;52.274;9.754;2024-02-21T13:58:30;12.90;99.90
24772;DHT22;12870;52.274;9.754;2024-02-21T14:00:56;12.80;99.90
24772;DHT22;12870;52.274;9.754;2024-02-21T14:03:22;12.90;99.90
24772;DHT22;12870;52.274;9.754;2024-02-21T14:05:47;13.00;99.90
24772;DHT22;12870;52.274;9.754;2024-02-21T14:08:16;13.10;99.90
24772;DHT22;12870;52.274;9.754;2024-02-21T14:10:42;13.10;99.90
24772;DHT22;12870;52.274;9.754;2024-02-21T14:13:07;13.10;99.90
24772;DHT22;12870;52.274;9.754;2024-02-21T14:15:33;13.20;99.90
24772;DHT22;12870;52.274;9.754;2024-02-21T14:17:58;13.20;99.90
24772;DHT22;12870;52.274;9.754;2024-02-21T14:20:24;13.30;99.90
24772;DHT22;12870;52.274;9.754;2024-02-21T14:22:49;13.40;99.90
24772;DHT22;12870;52.274;9.754;2024-02-21T14:25:15;13.30;99.90
24772;DHT22;12870;52.274;9.754;2024-02-21T14:27:41;13.30;99.90
24772;DHT22;12870;52.274;9.754;2024-02-21T14:30:07;13.10;99.90
24772;DHT22;12870;52.274;9.754;2024-02-21T14:32:36;13.10;99.90
24772;DHT22;12870;52.274;9.754;2024-02-21T14:35:01;13.00;99.90
24772;DHT22;12870;52.274;9.754;2024-02-21T14:37:27;12.90;99.90
24772;DHT22;12870;52.274;9.754;2024-02-21T14:39:53;12.80;99.90
24772;DHT22;12870;52.274;9.754;2024-02-21T14:42:19;12.70;99.90
24772;DHT22;12870;52.274;9.754;2024-02-21T14:44:44;12.60;99.90
24772;DHT22;12870;52.274;9.754;2024-02-21T14:47:10;12.60;99.90
24772;DHT22;12870;52.274;9.754;2024-02-21T14:49:35;12.60;99.90
24772;DHT22;12870;52.274;9.754;2024-02-21T14:52:01;12.60;99.90
24772;DHT22;12870;52.274;9.754;2024-02-21T14:54:27;12.60;99.90
24772;DHT22;12870;52.274;9.754;2024-02-21T14:56:52;12.60;99.90
24772;DHT22;12870;52.274;9.754;2024-02-21T14:59:19;12.60;99.90
24772;DHT22;12870;52.274;9.754;2024-02-21T15:01:45;12.50;99.90
24772;DHT22;12870;52.274;9.754;2024-02-21T15:04:10;12.40;99.90
24772;DHT22;12870;52.274;9.754;2024-02-21T15:06:36;12.40;99.90
24772;DHT22;12870;52.274;9.754;2024-02-21T15:09:03;12.30;99.90
24772;DHT22;12870;52.274;9.754;2024-02-21T15:11:29;12.10;99.90
24772;DHT22;12870;52.274;9.754;2024-02-21T15:13:54;12.10;99.90
24772;DHT22;12870;52.274;9.754;2024-02-21T15:16:20;12.10;99.90
24772;DHT22;12870;52.274;9.754;2024-02-21T15:18:45;12.10;99.90
24772;DHT22;12870;52.274;9.754;2024-02-21T15:21:11;12.20;99.90
24772;DHT22;12870;52.274;9.754;2024-02-21T15:23:39;12.20;99.90
24772;DHT22;12870;52.274;9.754;2024-02-21T15:26:06;12.20;99.90
24772;DHT22;12870;52.274;9.754;2024-02-21T15:28:31;12.20;99.90
24772;DHT22;12870;52.274;9.754;2024-02-21T15:30:57;12.20;99.90
24772;DHT22;12870;52.274;9.754;2024-02-21T15:33:22;12.10;99.90
24772;DHT22;12870;52.274;9.754;2024-02-21T15:35:48;11.90;99.90
24772;DHT22;12870;52.274;9.754;2024-02-21T15:38:14;11.80;99.90
24772;DHT22;12870;52.274;9.754;2024-02-21T15:40:39;11.80;99.90